Time;durP1;ratioP1;P1;durP2;ratioP2;P2;SDS_P1;SDS_P2;PMS_P1;PMS_P2;Temp;Humidity;BMP_temperature;BMP_pressure;BME280_temperature;BME280_humidity;BME280_pressure;Samples;Min_cycle;Max_cycle;Signal;HPM_P1;HPM_P2
2023/10/15 00:01:17;;;;;;;5.90;0.93;;;8.20;99.90;;;;;;4227583;27;20753;-81
2023/10/15 00:03:19;;;;;;;8.37;1.23;;;8.20;99.90;;;;;;4230798;27;20536;-79
2023/10/15 00:05:25;;;;;;;7.37;1.40;;;8.20;99.90;;;;;;4228003;27;20210;-80
2023/10/15 00:07:26;;;;;;;7.47;1.50;;;8.20;99.90;;;;;;4230560;27;20548;-81
2023/10/15 00:09:30;;;;;;;9.70;1.40;;;8.10;99.90;;;;;;4229432;27;20287;-80
2023/10/15 00:11:34;;;;;;;10.13;1.30;;;8.10;99.90;;;;;;4227261;27;20232;-82
2023/10/15 00:13:36;;;;;;;9.80;1.60;;;8.10;99.90;;;;;;4226878;27;20210;-79
2023/10/15 00:15:39;;;;;;;9.50;1.57;;;8.10;99.90;;;;;;4217771;28;20213;-80
2023/10/15 00:17:42;;;;;;;9.90;1.53;;;8.10;99.90;;;;;;4226286;28;20200;-79
2023/10/15 00:19:44;;;;;;;3.90;1.23;;;8.10;99.90;;;;;;4225499;28;20587;-79
2023/10/15 00:21:46;;;;;;;8.03;1.47;;;8.10;99.90;;;;;;4220474;28;20221;-79
2023/10/15 00:23:52;;;;;;;4.93;1.40;;;8.10;99.90;;;;;;4225860;27;20210;-80
2023/10/15 00:25:53;;;;;;;6.10;1.23;;;8.10;99.90;;;;;;4228357;27;20204;-80
2023/10/15 00:27:57;;;;;;;6.57;1.60;;;8.00;99.90;;;;;;4224277;28;20672;-81
2023/10/15 00:29:59;;;;;;;6.37;1.50;;;8.10;99.90;;;;;;4223924;28;20205;-80
2023/10/15 00:32:01;;;;;;;11.13;1.40;;;8.10;99.90;;;;;;4220606;28;20237;-82
2023/10/15 00:34:12;;;;;;;7.97;1.60;;;8.00;99.90;;;;;;4224830;27;20212;-81
2023/10/15 00:36:14;;;;;;;5.87;1.40;;;8.00;99.90;;;;;;4223591;28;20216;-80
2023/10/15 00:38:17;;;;;;;7.77;1.20;;;7.90;99.90;;;;;;4224527;28;20220;-79
2023/10/15 00:40:21;;;;;;;7.40;1.30;;;8.00;99.90;;;;;;4226914;28;20276;-81
2023/10/15 00:42:22;;;;;;;6.23;1.33;;;8.00;99.90;;;;;;4224270;28;20197;-80
2023/10/15 00:44:26;;;;;;;7.30;1.23;;;7.90;99.90;;;;;;4222368;28;20204;-79
2023/10/15 00:46:32;;;;;;;6.83;1.97;;;7.90;99.90;;;;;;4221601;28;20209;-79
2023/10/15 00:48:35;;;;;;;5.00;1.30;;;7.90;99.90;;;;;;4223423;28;20668;-80
2023/10/15 00:50:40;;;;;;;7.87;1.50;;;7.90;99.90;;;;;;4222792;28;20205;-78
2023/10/15 00:52:43;;;;;;;6.53;1.60;;;7.90;99.90;;;;;;4225741;28;20209;-79
2023/10/15 00:54:45;;;;;;;10.80;1.47;;;7.90;99.90;;;;;;4231576;27;20200;-79
2023/10/15 00:56:49;;;;;;;5.70;1.30;;;7.90;99.90;;;;;;4223878;28;20205;-79
2023/10/15 00:59:08;;;;;;;8.80;1.70;;;7.90;99.90;;;;;;4222186;28;20251;-80
2023/10/15 01:01:20;;;;;;;5.93;1.10;;;7.80;99.90;;;;;;4224201;28;20775;-81
2023/10/15 01:03:30;;;;;;;9.37;1.50;;;7.80;99.90;;;;;;4224393;28;20204;-79
2023/10/15 01:05:46;;;;;;;7.43;1.43;;;8.20;99.90;;;;;;4224660;28;20214;-81
2023/10/15 01:07:51;;;;;;;5.70;1.30;;;7.70;99.90;;;;;;4225149;28;20514;-80
2023/10/15 01:09:53;;;;;;;10.73;1.77;;;7.80;99.90;;;;;;4228625;28;20210;-78
2023/10/15 01:11:56;;;;;;;8.53;1.50;;;7.70;99.90;;;;;;4220483;28;20254;-79
2023/10/15 01:14:00;;;;;;;7.63;1.13;;;7.70;99.90;;;;;;4227197;28;20253;-79
2023/10/15 01:16:05;;;;;;;9.27;1.27;;;7.70;99.90;;;;;;4228552;28;20258;-79
2023/10/15 01:18:10;;;;;;;9.53;1.47;;;7.70;99.90;;;;;;4232022;28;20207;-80
2023/10/15 01:20:18;;;;;;;8.10;1.30;;;7.80;99.90;;;;;;4229162;28;20206;-80
2023/10/15 01:22:23;;;;;;;9.57;1.67;;;7.60;99.90;;;;;;4223460;28;20231;-80
2023/10/15 01:24:25;;;;;;;8.37;1.23;;;7.60;99.90;;;;;;4220777;28;20217;-80
2023/10/15 01:26:34;;;;;;;8.73;1.80;;;7.60;99.90;;;;;;4225499;28;20227;-79
2023/10/15 01:28:37;;;;;;;5.87;1.40;;;7.60;99.90;;;;;;4227179;28;20854;-80
2023/10/15 01:30:41;;;;;;;9.70;1.77;;;7.60;99.90;;;;;;4227460;28;20499;-79
2023/10/15 01:32:44;;;;;;;6.83;1.37;;;7.60;99.90;;;;;;4229028;28;20855;-79
2023/10/15 01:34:48;;;;;;;12.67;1.40;;;7.50;99.90;;;;;;4228752;27;20205;-81
2023/10/15 01:36:51;;;;;;;10.50;1.40;;;7.50;99.90;;;;;;4231694;27;20199;-79
2023/10/15 01:38:57;;;;;;;6.87;1.50;;;7.50;99.90;;;;;;4227472;28;20262;-79
2023/10/15 01:41:00;;;;;;;4.63;1.17;;;7.50;99.90;;;;;;4226975;28;20231;-79
2023/10/15 01:43:06;;;;;;;4.77;1.20;;;7.50;99.90;;;;;;4232444;28;20493;-79
2023/10/15 01:45:29;;;;;;;10.70;1.40;;;7.40;99.90;;;;;;4234757;27;20212;-79
2023/10/15 01:47:35;;;;;;;7.50;1.30;;;7.40;99.90;;;;;;4231681;28;20462;-80
2023/10/15 01:49:37;;;;;;;10.73;2.07;;;7.40;99.90;;;;;;4234767;27;20204;-83
2023/10/15 01:51:39;;;;;;;4.23;1.37;;;7.40;99.90;;;;;;4233310;27;20719;-80
2023/10/15 01:53:41;;;;;;;7.20;1.43;;;7.40;99.90;;;;;;4230770;27;20196;-80
2023/10/15 01:55:53;;;;;;;7.50;1.60;;;7.30;99.90;;;;;;4225592;28;20219;-81
2023/10/15 01:57:56;;;;;;;6.93;1.50;;;7.30;99.90;;;;;;4225015;27;20461;-79
2023/10/15 02:00:05;;;;;;;8.63;1.30;;;7.30;99.90;;;;;;4227034;28;20303;-79
2023/10/15 02:02:08;;;;;;;5.60;1.33;;;7.30;99.90;;;;;;4229897;27;20281;-80
2023/10/15 02:04:17;;;;;;;4.90;1.50;;;7.30;99.90;;;;;;4230741;28;20231;-79
2023/10/15 02:06:19;;;;;;;6.63;1.77;;;7.20;99.90;;;;;;4223281;28;20446;-79
2023/10/15 02:08:23;;;;;;;7.70;1.53;;;7.20;99.90;;;;;;4224149;28;20204;-80
2023/10/15 02:10:25;;;;;;;6.10;1.60;;;7.20;99.90;;;;;;4227598;28;20202;-78
2023/10/15 02:12:27;;;;;;;7.63;1.57;;;7.20;99.90;;;;;;4229168;28;20481;-79
2023/10/15 02:14:30;;;;;;;11.57;2.77;;;7.20;99.90;;;;;;4232153;27;20288;-79
2023/10/15 02:16:37;;;;;;;6.93;1.40;;;7.10;99.90;;;;;;4226004;28;20566;-79
2023/10/15 02:18:39;;;;;;;7.63;1.60;;;7.10;99.90;;;;;;4227375;27;20216;-79
2023/10/15 02:20:47;;;;;;;17.57;2.40;;;7.10;99.90;;;;;;4229967;27;20705;-79
2023/10/15 02:22:49;;;;;;;8.57;1.37;;;7.10;99.90;;;;;;4231708;28;20253;-78
2023/10/15 02:24:56;;;;;;;5.07;1.30;;;7.00;99.90;;;;;;4229815;28;21123;-79
2023/10/15 02:26:57;;;;;;;7.43;1.80;;;7.10;99.90;;;;;;4228772;27;20212;-80
2023/10/15 02:29:06;;;;;;;7.67;1.73;;;7.00;99.90;;;;;;4227802;27;20197;-80
2023/10/15 02:31:14;;;;;;;6.33;1.20;;;7.00;99.90;;;;;;4229467;27;20289;-80
2023/10/15 02:33:18;;;;;;;8.07;2.27;;;7.00;99.90;;;;;;4228391;27;20238;-81
2023/10/15 02:35:24;;;;;;;7.37;1.50;;;7.00;99.90;;;;;;4231764;27;20788;-79
2023/10/15 02:37:27;;;;;;;8.27;1.23;;;6.90;99.90;;;;;;4229760;27;20200;-79
2023/10/15 02:39:36;;;;;;;9.03;1.40;;;6.90;99.90;;;;;;4237263;27;20216;-79
2023/10/15 02:41:41;;;;;;;6.30;1.20;;;6.90;99.90;;;;;;4229733;27;20494;-80
2023/10/15 02:43:51;;;;;;;9.33;1.57;;;6.90;99.90;;;;;;4230452;27;20986;-79
2023/10/15 02:45:53;;;;;;;7.00;1.40;;;6.90;99.90;;;;;;4225138;27;20878;-78
2023/10/15 02:47:55;;;;;;;8.90;1.17;;;6.80;99.90;;;;;;4225330;27;21330;-78
2023/10/15 02:50:03;;;;;;;4.90;1.10;;;6.90;99.90;;;;;;4229188;27;20445;-79
2023/10/15 02:52:10;;;;;;;6.90;1.33;;;6.80;99.90;;;;;;4221342;28;20473;-79
2023/10/15 02:54:27;;;;;;;9.77;1.53;;;6.80;99.90;;;;;;4223659;27;20450;-80
2023/10/15 02:56:29;;;;;;;5.83;1.13;;;6.80;99.90;;;;;;4228899;27;20258;-80
2023/10/15 02:58:30;;;;;;;6.83;1.30;;;6.80;99.90;;;;;;4224719;27;21279;-79
2023/10/15 03:00:33;;;;;;;11.00;1.87;;;6.80;99.90;;;;;;4223797;27;20569;-78
2023/10/15 03:02:43;;;;;;;5.73;1.03;;;6.80;99.90;;;;;;4224423;27;20215;-80
2023/10/15 03:04:49;;;;;;;6.03;1.20;;;6.80;99.90;;;;;;4221799;27;20489;-80
2023/10/15 03:06:57;;;;;;;5.07;1.20;;;6.80;99.90;;;;;;4222928;27;20438;-82
2023/10/15 03:08:59;;;;;;;5.13;1.17;;;6.70;99.90;;;;;;4226759;27;20876;-79
2023/10/15 03:11:12;;;;;;;11.90;1.37;;;6.70;99.90;;;;;;4229773;28;20465;-78
2023/10/15 03:13:14;;;;;;;2.60;1.20;;;6.70;99.90;;;;;;4223099;27;20434;-78
2023/10/15 03:15:20;;;;;;;8.30;1.47;;;6.70;99.90;;;;;;4224176;28;20547;-78
2023/10/15 03:17:25;;;;;;;7.03;1.30;;;6.70;99.90;;;;;;4227397;28;20462;-79
2023/10/15 03:19:27;;;;;;;9.07;1.73;;;6.70;99.90;;;;;;4229263;28;20216;-80
2023/10/15 03:21:30;;;;;;;5.80;1.30;;;6.70;99.90;;;;;;4226183;28;20474;-78
2023/10/15 03:23:32;;;;;;;5.80;1.40;;;6.60;99.90;;;;;;4229034;28;20443;-79
2023/10/15 03:25:34;;;;;;;7.50;1.30;;;6.70;99.90;;;;;;4224917;28;20447;-78
2023/10/15 03:27:37;;;;;;;6.40;1.23;;;6.70;99.90;;;;;;4228696;27;20549;-79
2023/10/15 03:29:39;;;;;;;6.53;1.47;;;6.70;99.90;;;;;;4227695;28;20442;-78
2023/10/15 03:31:46;;;;;;;10.67;1.10;;;6.70;99.90;;;;;;4218835;28;20565;-78
2023/10/15 03:34:12;;;;;;;9.97;1.60;;;6.70;99.90;;;;;;4224868;27;20577;-80
2023/10/15 03:36:17;;;;;;;10.33;1.40;;;6.70;99.90;;;;;;4222524;28;20434;-79
2023/10/15 03:38:24;;;;;;;3.53;0.90;;;6.70;99.90;;;;;;4226413;28;20211;-79
2023/10/15 03:40:32;;;;;;;9.60;1.40;;;6.60;99.90;;;;;;4226842;27;20204;-78
2023/10/15 03:42:39;;;;;;;13.40;1.40;;;6.60;99.90;;;;;;4223813;28;20456;-79
2023/10/15 03:44:45;;;;;;;11.70;1.50;;;6.60;99.90;;;;;;4220887;27;20961;-78
2023/10/15 03:46:47;;;;;;;6.63;1.47;;;6.60;99.90;;;;;;4222271;28;20446;-78
2023/10/15 03:48:50;;;;;;;6.73;1.40;;;6.60;99.90;;;;;;4222075;28;20454;-79
2023/10/15 03:50:54;;;;;;;6.93;1.33;;;6.50;99.90;;;;;;4226595;28;20465;-78
2023/10/15 03:52:57;;;;;;;4.97;1.40;;;6.50;99.90;;;;;;4226695;27;20455;-79
2023/10/15 03:54:58;;;;;;;8.03;1.40;;;6.50;99.90;;;;;;4222591;28;20514;-78
2023/10/15 03:57:01;;;;;;;12.73;1.60;;;6.50;99.90;;;;;;4225979;28;20442;-77
2023/10/15 03:59:03;;;;;;;10.67;1.93;;;6.50;99.90;;;;;;4224042;28;20209;-79
2023/10/15 04:01:15;;;;;;;13.03;1.67;;;6.50;99.90;;;;;;4226650;28;20477;-79
2023/10/15 04:03:22;;;;;;;9.97;1.50;;;6.50;99.90;;;;;;4218975;28;20913;-78
2023/10/15 04:05:28;;;;;;;4.57;1.20;;;6.50;99.90;;;;;;4231007;27;20450;-78
2023/10/15 04:07:32;;;;;;;10.70;1.40;;;6.50;99.90;;;;;;4228825;28;20932;-77
2023/10/15 04:09:34;;;;;;;8.73;1.20;;;6.50;99.90;;;;;;4225429;28;20439;-78
2023/10/15 04:11:43;;;;;;;13.27;1.37;;;6.50;99.90;;;;;;4226402;28;20461;-80
2023/10/15 04:13:47;;;;;;;9.23;1.23;;;6.50;99.90;;;;;;4227993;27;20457;-78
2023/10/15 04:15:49;;;;;;;5.17;1.43;;;6.40;99.90;;;;;;4223747;28;20452;-79
2023/10/15 04:17:51;;;;;;;9.33;1.80;;;6.40;99.90;;;;;;4224049;27;20526;-81
2023/10/15 04:19:53;;;;;;;8.30;1.47;;;6.40;99.90;;;;;;4225825;28;20488;-78
2023/10/15 04:22:00;;;;;;;7.33;1.40;;;6.40;99.90;;;;;;4225412;28;20527;-78
2023/10/15 04:24:01;;;;;;;6.13;1.40;;;6.40;99.90;;;;;;4230716;28;20458;-77
2023/10/15 04:26:11;;;;;;;9.77;1.70;;;6.40;99.90;;;;;;4229341;28;20446;-78
2023/10/15 04:28:14;;;;;;;7.97;1.50;;;6.40;99.90;;;;;;4228613;28;20494;-79
2023/10/15 04:30:19;;;;;;;7.40;1.40;;;6.40;99.90;;;;;;4230736;28;20453;-79
2023/10/15 04:32:28;;;;;;;6.30;1.10;;;6.40;99.90;;;;;;4230088;28;20465;-78
2023/10/15 04:34:32;;;;;;;12.10;1.53;;;6.30;99.90;;;;;;4238484;28;20454;-79
2023/10/15 04:36:40;;;;;;;8.73;1.40;;;6.30;99.90;;;;;;4228789;28;20499;-79
2023/10/15 04:38:42;;;;;;;12.40;2.13;;;6.30;99.90;;;;;;4227171;28;20438;-79
2023/10/15 04:40:59;;;;;;;7.37;1.33;;;6.30;99.90;;;;;;4231534;28;20515;-79
2023/10/15 04:43:01;;;;;;;8.30;1.80;;;6.30;99.90;;;;;;4230091;28;20441;-78
2023/10/15 04:45:20;;;;;;;7.10;1.30;;;6.30;99.90;;;;;;4229426;28;20624;-78
2023/10/15 04:47:28;;;;;;;8.73;2.13;;;6.20;99.90;;;;;;4226125;28;20441;-79
2023/10/15 04:49:31;;;;;;;7.73;1.43;;;6.20;99.90;;;;;;4229266;27;20444;-79
2023/10/15 04:51:42;;;;;;;10.40;1.93;;;6.20;99.90;;;;;;4223511;28;20461;-78
2023/10/15 04:53:48;;;;;;;4.17;1.10;;;6.20;99.90;;;;;;4224944;28;20583;-80
2023/10/15 04:55:54;;;;;;;6.57;1.50;;;6.20;99.90;;;;;;4227235;28;20488;-80
2023/10/15 04:57:55;;;;;;;5.03;1.03;;;6.10;99.90;;;;;;4219617;28;20452;-78
2023/10/15 04:59:57;;;;;;;7.70;1.40;;;6.10;99.90;;;;;;4225038;28;20488;-80
2023/10/15 05:01:58;;;;;;;9.50;2.00;;;6.10;99.90;;;;;;4220620;28;20481;-78
2023/10/15 05:04:06;;;;;;;5.20;1.10;;;6.10;99.90;;;;;;4235061;27;20497;-79
2023/10/15 05:06:10;;;;;;;9.03;1.37;;;6.10;99.90;;;;;;4229007;27;20711;-79
2023/10/15 05:08:13;;;;;;;4.33;1.20;;;6.10;99.90;;;;;;4230884;27;20446;-79
2023/10/15 05:10:15;;;;;;;7.50;1.30;;;6.10;99.90;;;;;;4228432;28;20442;-80
2023/10/15 05:12:20;;;;;;;12.77;1.97;;;6.00;99.90;;;;;;4228309;27;20545;-78
2023/10/15 05:14:22;;;;;;;11.40;1.40;;;6.00;99.90;;;;;;4230732;27;20455;-79
2023/10/15 05:16:24;;;;;;;6.40;2.47;;;6.00;99.90;;;;;;4227977;28;20444;-79
2023/10/15 05:18:29;;;;;;;4.33;1.30;;;5.90;99.90;;;;;;4230688;27;20523;-79
2023/10/15 05:20:34;;;;;;;9.03;1.20;;;5.90;99.90;;;;;;4235426;27;21115;-78
2023/10/15 05:22:36;;;;;;;8.90;1.30;;;5.90;99.90;;;;;;4232075;28;20462;-79
2023/10/15 05:24:37;;;;;;;9.27;1.57;;;5.90;99.90;;;;;;4225138;28;20452;-79
2023/10/15 05:26:40;;;;;;;8.03;1.40;;;5.90;99.90;;;;;;4229651;28;20456;-79
2023/10/15 05:28:41;;;;;;;5.70;1.20;;;5.90;99.90;;;;;;4227232;28;20456;-80
2023/10/15 05:30:44;;;;;;;5.33;1.27;;;5.80;99.90;;;;;;4227471;27;20445;-79
2023/10/15 05:32:48;;;;;;;5.47;1.23;;;5.80;99.90;;;;;;4232422;28;21052;-80
2023/10/15 05:34:51;;;;;;;4.10;1.00;;;5.80;99.90;;;;;;4233297;27;20835;-81
2023/10/15 05:36:55;;;;;;;5.97;1.60;;;5.80;99.90;;;;;;4233881;27;20455;-80
2023/10/15 05:38:56;;;;;;;9.77;1.43;;;5.80;99.90;;;;;;4228572;28;20482;-79
2023/10/15 05:40:59;;;;;;;9.30;1.37;;;5.70;99.90;;;;;;4223083;28;20558;-79
2023/10/15 05:43:01;;;;;;;13.60;1.93;;;5.70;99.90;;;;;;4225336;28;20461;-78
2023/10/15 05:45:06;;;;;;;6.80;1.47;;;5.70;99.90;;;;;;4233645;27;20457;-81
2023/10/15 05:47:11;;;;;;;9.13;1.50;;;5.90;99.90;;;;;;4229775;27;20897;-81
2023/10/15 05:49:13;;;;;;;5.17;1.70;;;5.70;99.90;;;;;;4228086;28;20452;-81
2023/10/15 05:51:15;;;;;;;5.73;1.50;;;6.00;99.90;;;;;;4231683;27;20453;-80
2023/10/15 05:53:19;;;;;;;8.83;1.57;;;5.70;99.90;;;;;;4226967;27;20478;-81
2023/10/15 05:55:20;;;;;;;5.07;1.63;;;5.70;99.90;;;;;;4232924;27;20594;-80
2023/10/15 05:57:22;;;;;;;8.80;1.80;;;5.70;99.90;;;;;;4232057;27;20462;-80
2023/10/15 05:59:24;;;;;;;4.57;1.47;;;5.70;99.90;;;;;;4226175;27;20208;-80
2023/10/15 06:01:29;;;;;;;7.17;1.23;;;5.70;99.90;;;;;;4238374;28;20490;-81
2023/10/15 06:03:31;;;;;;;8.47;1.47;;;5.80;99.90;;;;;;4237103;28;20461;-81
2023/10/15 06:05:32;;;;;;;6.30;1.43;;;5.80;99.90;;;;;;4236618;28;20503;-82
2023/10/15 06:07:34;;;;;;;11.67;1.83;;;5.80;99.90;;;;;;4237980;28;20473;-80
2023/10/15 06:09:37;;;;;;;5.40;1.40;;;5.90;99.90;;;;;;4244961;27;20449;-81
2023/10/15 06:11:40;;;;;;;8.67;1.80;;;5.90;99.90;;;;;;4234358;28;20469;-81
2023/10/15 06:13:42;;;;;;;7.80;1.43;;;5.90;99.90;;;;;;4233393;28;20466;-79
2023/10/15 06:15:45;;;;;;;8.93;1.73;;;6.00;99.90;;;;;;4233027;27;20437;-79
2023/10/15 06:17:47;;;;;;;9.37;1.63;;;6.00;99.90;;;;;;4233245;27;20469;-79
2023/10/15 06:19:49;;;;;;;5.97;1.67;;;6.10;99.90;;;;;;4229873;27;20449;-80
2023/10/15 06:21:52;;;;;;;5.60;1.77;;;6.10;99.90;;;;;;4231332;27;20493;-79
2023/10/15 06:23:54;;;;;;;6.03;1.20;;;6.20;99.90;;;;;;4235066;27;20682;-79
2023/10/15 06:25:58;;;;;;;5.13;1.00;;;6.30;99.90;;;;;;4233976;27;20506;-80
2023/10/15 06:28:01;;;;;;;8.37;1.60;;;6.30;99.90;;;;;;4225893;28;20212;-79
2023/10/15 06:30:09;;;;;;;5.30;1.63;;;6.40;99.90;;;;;;4234382;27;20462;-80
2023/10/15 06:32:11;;;;;;;8.33;1.53;;;6.40;99.90;;;;;;4229499;28;20501;-80
2023/10/15 06:34:15;;;;;;;7.40;1.50;;;6.50;99.90;;;;;;4234151;27;20443;-80
2023/10/15 06:36:18;;;;;;;7.90;1.70;;;6.60;99.90;;;;;;4232276;27;20438;-80
2023/10/15 06:38:20;;;;;;;15.57;1.80;;;6.70;99.90;;;;;;4230845;27;20804;-79
2023/10/15 06:40:24;;;;;;;9.23;1.57;;;6.70;99.90;;;;;;4234557;28;20477;-79
2023/10/15 06:42:26;;;;;;;10.40;1.67;;;6.80;99.90;;;;;;4238520;27;20718;-79
2023/10/15 06:44:29;;;;;;;14.83;2.13;;;6.90;99.90;;;;;;4230330;28;20472;-79
2023/10/15 06:46:33;;;;;;;9.33;2.37;;;6.70;99.90;;;;;;4226928;28;20446;-79
2023/10/15 06:48:35;;;;;;;5.40;1.33;;;7.00;99.90;;;;;;4227433;27;20794;-79
2023/10/15 06:50:37;;;;;;;9.93;1.60;;;7.10;99.90;;;;;;4232217;27;20197;-81
2023/10/15 06:52:41;;;;;;;9.20;2.13;;;7.10;99.90;;;;;;4233247;27;20447;-80
2023/10/15 06:54:43;;;;;;;14.43;1.90;;;7.20;99.90;;;;;;4227031;27;20208;-79
2023/10/15 06:56:45;;;;;;;10.07;1.80;;;7.30;99.90;;;;;;4228552;27;20208;-79
2023/10/15 06:58:48;;;;;;;6.57;2.10;;;7.30;99.90;;;;;;4227082;27;20486;-79
2023/10/15 07:00:50;;;;;;;6.37;1.47;;;7.40;99.90;;;;;;4229714;27;20228;-79
2023/10/15 07:02:56;;;;;;;6.97;1.93;;;7.40;99.90;;;;;;4229374;27;20291;-79
2023/10/15 07:05:00;;;;;;;12.67;1.90;;;7.50;99.90;;;;;;4234121;27;20209;-80
2023/10/15 07:07:03;;;;;;;5.93;1.73;;;7.50;99.90;;;;;;4233466;27;20213;-80
2023/10/15 07:09:05;;;;;;;10.23;2.10;;;7.50;99.90;;;;;;4238489;27;20230;-80
2023/10/15 07:11:08;;;;;;;10.17;2.27;;;7.60;99.90;;;;;;4238956;27;20244;-80
2023/10/15 07:13:11;;;;;;;11.20;2.00;;;7.50;99.90;;;;;;4241633;27;20208;-79
2023/10/15 07:15:16;;;;;;;12.20;2.07;;;7.60;99.90;;;;;;4242184;27;20212;-79
2023/10/15 07:17:18;;;;;;;8.77;1.90;;;7.70;99.90;;;;;;4236321;27;20277;-79
2023/10/15 07:19:20;;;;;;;6.70;2.40;;;7.70;99.90;;;;;;4237192;27;20208;-79
2023/10/15 07:21:23;;;;;;;12.00;2.33;;;7.70;99.90;;;;;;4232324;27;20226;-79
2023/10/15 07:23:25;;;;;;;6.20;1.97;;;7.80;99.90;;;;;;4235029;27;20204;-80
2023/10/15 07:25:27;;;;;;;12.40;2.97;;;7.80;99.90;;;;;;4228396;28;20205;-79
2023/10/15 07:27:28;;;;;;;11.20;3.00;;;7.80;99.90;;;;;;4225786;27;20201;-79
2023/10/15 07:29:30;;;;;;;11.57;2.20;;;7.80;99.90;;;;;;4226519;28;20692;-79
2023/10/15 07:31:34;;;;;;;8.20;2.80;;;7.90;99.90;;;;;;4225443;28;20255;-79
2023/10/15 07:33:36;;;;;;;5.20;2.20;;;7.90;99.90;;;;;;4225990;28;20263;-80
2023/10/15 07:35:39;;;;;;;17.10;2.80;;;7.90;99.90;;;;;;4230164;27;20209;-80
2023/10/15 07:37:42;;;;;;;4.07;1.93;;;8.00;99.90;;;;;;4230101;28;20203;-80
2023/10/15 07:39:44;;;;;;;9.10;2.40;;;8.00;99.90;;;;;;4225795;27;20221;-80
2023/10/15 07:41:46;;;;;;;7.63;2.30;;;7.90;99.90;;;;;;4226748;27;20229;-80
2023/10/15 07:43:48;;;;;;;6.60;2.17;;;8.10;99.90;;;;;;4227827;28;20205;-79
2023/10/15 07:45:50;;;;;;;11.30;2.33;;;8.20;99.90;;;;;;4228612;27;20213;-79
2023/10/15 07:47:54;;;;;;;11.80;2.43;;;8.20;99.90;;;;;;4227457;27;20199;-77
2023/10/15 07:49:55;;;;;;;10.70;2.90;;;8.20;99.90;;;;;;4225349;27;20205;-77
2023/10/15 07:51:57;;;;;;;9.77;2.40;;;8.20;99.90;;;;;;4224078;27;20221;-79
2023/10/15 07:53:59;;;;;;;13.00;2.63;;;8.20;99.90;;;;;;4221729;28;20280;-81
2023/10/15 07:56:02;;;;;;;11.17;2.63;;;8.20;99.90;;;;;;4227823;27;20297;-79
2023/10/15 07:58:04;;;;;;;15.80;2.97;;;8.30;99.90;;;;;;4222041;28;20276;-78
2023/10/15 08:00:07;;;;;;;9.70;2.57;;;8.30;99.90;;;;;;4221787;27;20337;-77
2023/10/15 08:02:09;;;;;;;9.60;2.50;;;8.30;99.90;;;;;;4226485;28;20233;-78
2023/10/15 08:04:13;;;;;;;15.30;2.73;;;8.40;99.90;;;;;;4233521;27;20267;-79
2023/10/15 08:06:15;;;;;;;13.27;3.03;;;8.90;99.90;;;;;;4238111;27;20269;-79
2023/10/15 08:08:17;;;;;;;8.77;2.43;;;8.40;99.90;;;;;;4239321;28;20196;-80
2023/10/15 08:10:21;;;;;;;11.70;2.97;;;8.50;99.90;;;;;;4236242;27;20214;-82
2023/10/15 08:12:26;;;;;;;9.77;2.87;;;8.40;99.90;;;;;;4233040;27;20275;-83
2023/10/15 08:14:27;;;;;;;11.57;2.93;;;8.40;99.90;;;;;;4231286;27;20224;-83
2023/10/15 08:16:29;;;;;;;9.33;2.10;;;8.40;99.90;;;;;;4229370;28;20262;-79
2023/10/15 08:18:31;;;;;;;5.60;1.70;;;8.40;99.90;;;;;;4230960;28;20212;-80
2023/10/15 08:20:35;;;;;;;9.40;2.27;;;8.40;99.90;;;;;;4226683;28;20337;-79
2023/10/15 08:22:40;;;;;;;9.53;2.27;;;8.50;99.90;;;;;;4230202;28;20657;-80
2023/10/15 08:24:42;;;;;;;6.57;2.00;;;8.50;99.90;;;;;;4232476;27;20207;-81
2023/10/15 08:26:44;;;;;;;9.57;2.27;;;8.50;99.90;;;;;;4230072;28;20232;-80
2023/10/15 08:28:48;;;;;;;6.30;2.03;;;8.50;99.90;;;;;;4230982;28;20205;-80
2023/10/15 08:30:53;;;;;;;9.97;2.20;;;8.50;99.90;;;;;;4229679;27;20685;-80
2023/10/15 08:32:55;;;;;;;5.83;1.77;;;8.60;99.90;;;;;;4233822;27;20198;-80
2023/10/15 08:34:57;;;;;;;7.43;1.97;;;8.60;99.90;;;;;;4222040;28;20300;-80
2023/10/15 08:37:02;;;;;;;7.80;1.80;;;8.60;99.90;;;;;;4226702;27;20210;-79
2023/10/15 08:39:06;;;;;;;6.27;1.97;;;8.70;99.90;;;;;;4228074;28;20205;-78
2023/10/15 08:41:12;;;;;;;12.17;2.00;;;8.80;99.90;;;;;;4232750;27;20262;-79
2023/10/15 08:43:20;;;;;;;7.03;1.73;;;8.80;99.90;;;;;;4226377;28;20229;-79
2023/10/15 08:45:24;;;;;;;8.63;2.10;;;8.90;99.90;;;;;;4220669;28;20221;-78
2023/10/15 08:47:26;;;;;;;7.73;2.10;;;9.00;99.90;;;;;;4220548;28;20201;-78
2023/10/15 08:49:34;;;;;;;11.10;2.27;;;9.00;99.90;;;;;;4224763;28;20224;-79
2023/10/15 08:51:37;;;;;;;8.37;2.07;;;9.10;99.90;;;;;;4224057;28;20310;-79
2023/10/15 08:53:41;;;;;;;9.53;2.40;;;9.10;99.90;;;;;;4224494;28;20248;-82
2023/10/15 08:55:44;;;;;;;5.23;1.70;;;9.20;99.90;;;;;;4216748;28;20267;-78
2023/10/15 08:57:45;;;;;;;5.80;1.87;;;9.20;99.90;;;;;;4225115;28;20213;-77
2023/10/15 08:59:48;;;;;;;8.30;2.47;;;9.20;99.90;;;;;;4230935;28;20219;-79
2023/10/15 09:01:52;;;;;;;7.30;2.30;;;9.30;99.90;;;;;;4228133;28;20249;-80
2023/10/15 09:03:55;;;;;;;11.97;2.50;;;9.30;99.90;;;;;;4231285;28;20742;-81
2023/10/15 09:05:57;;;;;;;4.83;1.90;;;9.30;99.90;;;;;;4225723;27;20283;-79
2023/10/15 09:08:06;;;;;;;8.33;1.97;;;9.30;99.90;;;;;;4230162;28;20201;-79
2023/10/15 09:10:13;;;;;;;8.90;1.63;;;9.40;99.90;;;;;;4230612;28;20210;-80
2023/10/15 09:12:16;;;;;;;5.20;1.77;;;9.50;99.90;;;;;;4232370;28;20322;-80
2023/10/15 09:14:20;;;;;;;3.43;1.47;;;9.50;99.90;;;;;;4238232;28;20199;-79
2023/10/15 09:16:22;;;;;;;5.00;1.73;;;9.40;99.90;;;;;;4230096;28;20206;-82
2023/10/15 09:18:26;;;;;;;4.90;1.73;;;9.50;99.90;;;;;;4230332;28;20215;-81
2023/10/15 09:20:32;;;;;;;8.33;2.03;;;9.50;99.90;;;;;;4227654;28;20282;-77
2023/10/15 09:22:37;;;;;;;5.97;1.47;;;9.50;99.90;;;;;;4236708;28;20309;-79
2023/10/15 09:24:41;;;;;;;5.87;1.70;;;9.60;99.90;;;;;;4233597;28;20197;-79
2023/10/15 09:26:44;;;;;;;6.57;1.70;;;9.60;99.90;;;;;;4235419;28;20219;-78
2023/10/15 09:28:47;;;;;;;6.20;1.50;;;9.60;99.90;;;;;;4241488;28;20203;-77
2023/10/15 09:30:49;;;;;;;5.67;1.80;;;9.60;99.90;;;;;;4239489;28;20246;-78
2023/10/15 09:32:51;;;;;;;5.27;1.83;;;9.60;99.90;;;;;;4233848;28;20279;-80
2023/10/15 09:34:55;;;;;;;5.87;1.57;;;9.60;99.90;;;;;;4245753;27;20199;-81
2023/10/15 09:36:59;;;;;;;8.67;2.00;;;9.70;99.90;;;;;;4242996;28;20242;-77
2023/10/15 09:39:12;;;;;;;7.30;1.93;;;9.70;99.90;;;;;;4240382;28;20206;-77
2023/10/15 09:41:15;;;;;;;5.53;1.97;;;9.80;99.90;;;;;;4243275;28;20313;-78
2023/10/15 09:43:17;;;;;;;7.53;2.00;;;9.80;99.90;;;;;;4236102;28;20210;-79
2023/10/15 09:45:22;;;;;;;3.40;1.50;;;10.20;99.90;;;;;;4237931;28;20273;-78
2023/10/15 09:47:24;;;;;;;4.50;1.37;;;10.00;99.90;;;;;;4231949;28;20216;-77
2023/10/15 09:49:26;;;;;;;4.33;1.60;;;10.40;99.90;;;;;;4224873;28;20212;-79
2023/10/15 09:51:29;;;;;;;9.63;1.80;;;10.10;99.90;;;;;;4230266;28;20220;-78
2023/10/15 09:53:34;;;;;;;4.77;1.73;;;10.10;99.90;;;;;;4232601;28;20673;-79
2023/10/15 09:55:37;;;;;;;5.13;1.70;;;10.10;99.90;;;;;;4232412;28;20584;-79
2023/10/15 09:57:41;;;;;;;8.10;2.00;;;10.10;99.90;;;;;;4234832;28;20211;-79
2023/10/15 09:59:52;;;;;;;6.00;1.67;;;10.00;99.90;;;;;;4246656;27;20215;-81
2023/10/15 10:01:56;;;;;;;7.90;2.00;;;10.00;99.90;;;;;;4242184;28;20222;-80
2023/10/15 10:04:18;;;;;;;5.80;2.00;;;10.10;99.90;;;;;;4246760;27;20263;-81
2023/10/15 10:06:37;;;;;;;6.80;1.70;;;10.10;99.90;;;;;;4244043;28;20267;-83
2023/10/15 10:08:56;;;;;;;6.80;1.93;;;10.10;99.90;;;;;;4239747;28;20204;-81
2023/10/15 10:11:18;;;;;;;8.10;1.60;;;10.20;99.90;;;;;;4229861;28;20736;-79
2023/10/15 10:13:54;;;;;;;4.97;1.70;;;10.30;99.90;;;;;;4227852;28;20241;-79
2023/10/15 10:15:59;;;;;;;5.17;1.73;;;10.40;99.90;;;;;;4223127;28;20214;-79
2023/10/15 10:18:03;;;;;;;7.10;2.10;;;10.40;99.90;;;;;;4229131;27;20961;-81
2023/10/15 10:20:11;;;;;;;5.27;1.57;;;10.40;99.90;;;;;;4231024;27;20208;-80
2023/10/15 10:22:21;;;;;;;3.20;1.43;;;10.40;99.90;;;;;;4223102;27;20261;-81
2023/10/15 10:24:23;;;;;;;5.27;1.50;;;10.40;99.90;;;;;;4225832;28;20260;-82
2023/10/15 10:26:28;;;;;;;6.93;1.53;;;10.40;99.90;;;;;;4229309;28;20214;-81
2023/10/15 10:28:36;;;;;;;4.17;1.40;;;10.40;99.90;;;;;;4230150;27;20717;-82
2023/10/15 10:30:39;;;;;;;10.67;1.73;;;10.40;99.90;;;;;;4223036;27;20201;-81
2023/10/15 10:32:45;;;;;;;7.50;1.83;;;10.50;99.90;;;;;;4225529;28;20200;-81
2023/10/15 10:35:07;;;;;;;4.77;1.47;;;10.60;99.90;;;;;;4230973;27;20683;-81
2023/10/15 10:37:21;;;;;;;7.83;1.50;;;10.60;99.90;;;;;;4226935;28;20763;-82
2023/10/15 10:39:25;;;;;;;5.10;1.37;;;10.60;99.90;;;;;;4228022;28;20282;-81
2023/10/15 10:41:38;;;;;;;4.83;1.43;;;10.60;99.90;;;;;;4231982;28;21108;-81
2023/10/15 10:43:40;;;;;;;7.43;1.60;;;10.60;99.90;;;;;;4233181;27;20216;-82
2023/10/15 10:45:55;;;;;;;6.23;1.70;;;10.60;99.90;;;;;;4239465;27;20198;-81
2023/10/15 10:47:59;;;;;;;7.33;1.77;;;10.50;99.90;;;;;;4229457;28;20219;-82
2023/10/15 10:50:03;;;;;;;4.33;2.00;;;10.50;99.90;;;;;;4230958;27;20212;-82
2023/10/15 10:52:06;;;;;;;7.93;1.77;;;10.50;99.90;;;;;;4231922;27;20224;-82
2023/10/15 10:54:26;;;;;;;3.60;1.60;;;10.50;99.90;;;;;;4231048;27;20210;-82